Oxley, Arkansas
Current Conditions -  °F | °C
As of 10:35 AM on Friday 28 Nov 2014 (Local Time) from KCCA Reporting Station
Clear Clear  
Wind Chill: 40°   Ceiling: Unl
Heat Index: 46°   Visibility: 8mi
Dew Point: 32°   Wind: 14mph
Humidity: 57%   Direction: 210°SSW
Pressure: 30.3"   Gusts: 20mph
Location:  35.8223°N, 92.5849°W
Report Text: KCCA 281635Z AUTO 21012G17KT 8SM CLR 08/00 A3030 RMK AO2
Loading
Personal Weather Stations






























Interactive Weather Map New forecast layout! Learn more

10-Day Weather Forecast

Advertisements
Track Severe Weather on mobile